Time;durP1;ratioP1;P1;durP2;ratioP2;P2;SDS_P1;SDS_P2;PMS_P1;PMS_P2;Temp;Humidity;BMP_temperature;BMP_pressure;BME280_temperature;BME280_humidity;BME280_pressure;Samples;Min_cycle;Max_cycle;Signal;HPM_P1;HPM_P2
2021/09/11 00:00:44;;;;;;;12.45;7.50;;;21.00;99.90;;;21.48;73.44;101342.94;5099258;28;20508;-71
2021/09/11 00:03:13;;;;;;;13.80;6.82;;;21.00;99.90;;;21.49;73.38;101339.28;5117071;28;20072;-71
2021/09/11 00:05:43;;;;;;;10.43;6.93;;;21.00;99.90;;;21.54;73.23;101340.84;5099372;28;20100;-72
2021/09/11 00:08:11;;;;;;;13.80;7.88;;;21.10;99.90;;;21.38;73.38;101304.75;5117398;28;20462;-71
2021/09/11 00:10:40;;;;;;;11.68;8.25;;;21.10;99.90;;;21.53;73.49;101335.53;5117107;28;20122;-71
2021/09/11 00:13:09;;;;;;;15.02;9.63;;;21.10;99.90;;;21.47;73.75;101344.75;5117250;28;20039;-71
2021/09/11 00:15:37;;;;;;;17.23;10.48;;;21.00;99.90;;;21.42;74.14;101330.59;5117532;28;20085;-72
2021/09/11 00:18:06;;;;;;;15.77;10.63;;;21.00;99.90;;;21.29;74.49;101334.72;5116907;28;20472;-72
2021/09/11 00:20:35;;;;;;;19.23;11.20;;;20.90;99.90;;;21.22;74.50;101332.34;5116888;28;20050;-71
2021/09/11 00:23:12;;;;;;;16.55;11.13;;;20.80;99.90;;;21.27;74.74;101338.44;5117118;28;20043;-72
2021/09/11 00:25:41;;;;;;;18.85;12.15;;;20.80;99.90;;;21.22;74.72;101337.72;5116918;28;20097;-72
2021/09/11 00:28:09;;;;;;;19.10;11.95;;;20.80;99.90;;;21.09;74.85;101310.47;5117313;28;20486;-72
2021/09/11 00:30:38;;;;;;;18.27;11.60;;;20.80;99.90;;;21.20;74.93;101327.03;5116686;28;20043;-72
2021/09/11 00:33:06;;;;;;;16.40;12.35;;;20.80;99.90;;;21.12;75.14;101325.56;5116435;28;20050;-72
2021/09/11 00:35:34;;;;;;;19.85;13.20;;;20.70;99.90;;;21.10;75.50;101330.19;5116866;28;20044;-72
2021/09/11 00:38:04;;;;;;;18.85;12.70;;;20.70;99.90;;;20.49;75.54;101233.06;5116483;28;20485;-72
2021/09/11 00:40:33;;;;;;;18.63;11.87;;;20.60;99.90;;;21.04;75.66;101325.03;5116405;28;20040;-72
2021/09/11 00:43:01;;;;;;;15.20;11.65;;;20.60;99.90;;;21.03;75.90;101325.97;5117027;28;20662;-72
2021/09/11 00:45:29;;;;;;;15.63;11.05;;;20.60;99.90;;;21.03;75.82;101323.28;5115783;28;20074;-72
2021/09/11 00:47:58;;;;;;;20.42;11.18;;;20.60;99.90;;;20.83;76.15;101301.66;5097104;28;20077;-72
2021/09/11 00:50:26;;;;;;;14.10;10.50;;;20.50;99.90;;;21.03;76.07;101331.34;5115358;28;20112;-72
2021/09/11 00:52:55;;;;;;;22.00;12.20;;;20.60;99.90;;;20.93;76.21;101333.50;5114596;28;20400;-72
2021/09/11 00:55:24;;;;;;;16.02;11.38;;;20.50;99.90;;;20.81;76.32;101336.66;5115247;28;20047;-72
2021/09/11 00:57:54;;;;;;;17.83;11.90;;;20.50;99.90;;;20.70;76.71;101320.06;5115278;28;20374;-72
2021/09/11 01:00:22;;;;;;;18.50;11.32;;;20.40;99.90;;;20.83;76.66;101336.63;5114957;28;20378;-72
2021/09/11 01:02:51;;;;;;;19.35;11.50;;;20.40;99.90;;;20.75;76.78;101330.66;5114908;28;20043;-72
2021/09/11 01:05:20;;;;;;;16.92;11.68;;;20.40;99.90;;;20.78;76.82;101333.22;5114763;28;20040;-72
2021/09/11 01:07:50;;;;;;;17.63;11.27;;;20.40;99.90;;;20.79;76.85;101330.47;5096896;28;20063;-72
2021/09/11 01:10:18;;;;;;;16.90;10.30;;;20.40;99.90;;;20.61;77.03;101307.84;5115421;28;20067;-72
2021/09/11 01:12:49;;;;;;;17.25;10.77;;;20.30;99.90;;;20.75;77.24;101336.88;5114676;28;20036;-72
2021/09/11 01:15:18;;;;;;;17.38;11.07;;;20.40;99.90;;;20.75;77.40;101339.56;5096860;28;20435;-72
2021/09/11 01:17:47;;;;;;;17.55;11.65;;;20.30;99.90;;;20.79;77.49;101332.28;5115191;28;20118;-72
2021/09/11 01:20:15;;;;;;;18.50;11.88;;;20.40;99.90;;;20.44;77.64;101293.31;5114971;28;20089;-72
2021/09/11 01:22:45;;;;;;;19.23;12.57;;;20.30;99.90;;;20.66;77.81;101331.88;5114918;28;20040;-72
2021/09/11 01:25:15;;;;;;;23.05;13.57;;;20.30;99.90;;;20.64;77.97;101333.75;5114685;28;20040;-72
2021/09/11 01:27:44;;;;;;;25.67;13.70;;;20.30;99.90;;;20.62;78.09;101328.44;5114835;28;20043;-72
2021/09/11 01:30:16;;;;;;;21.40;12.98;;;20.30;99.90;;;20.46;78.10;101296.84;5114740;28;20134;-72
2021/09/11 01:32:44;;;;;;;26.50;14.18;;;20.30;99.90;;;20.59;78.38;101331.25;5114512;28;20036;-72
2021/09/11 01:35:14;;;;;;;22.48;14.68;;;20.20;99.90;;;20.56;78.54;101328.66;5114908;28;20473;-72
2021/09/11 01:37:42;;;;;;;22.95;14.65;;;20.20;99.90;;;20.64;78.53;101331.06;5114555;28;20105;-72
2021/09/11 01:40:12;;;;;;;23.42;13.55;;;20.20;99.90;;;20.61;78.66;101333.88;5114323;28;20450;-72
2021/09/11 01:42:42;;;;;;;21.67;14.82;;;20.20;99.90;;;20.61;78.96;101340.09;5114262;28;20052;-72
2021/09/11 01:45:12;;;;;;;;;;;20.20;99.90;;;20.63;79.15;101332.84;5076814;28;1096490;-72
2021/09/11 01:47:42;;;;;;;26.45;14.68;;;20.30;99.90;;;20.57;79.40;101333.13;5115555;28;20014;-72
2021/09/11 01:50:13;;;;;;;23.53;14.47;;;20.20;99.90;;;20.58;79.61;101328.59;5115726;28;20096;-72
2021/09/11 01:52:42;;;;;;;24.15;13.88;;;20.20;99.90;;;20.38;79.90;101317.75;5115549;28;20161;-72
2021/09/11 01:55:14;;;;;;;20.92;14.02;;;20.10;99.90;;;20.45;80.41;101333.56;5115369;28;20485;-72
2021/09/11 01:57:46;;;;;;;24.98;15.15;;;20.10;99.90;;;20.44;80.65;101341.72;5115353;28;20096;-72
2021/09/11 02:00:17;;;;;;;29.08;13.93;;;20.00;99.90;;;20.40;81.02;101338.22;5115262;28;20051;-72
2021/09/11 02:02:46;;;;;;;22.85;14.18;;;20.00;99.90;;;20.40;81.33;101340.06;5115228;28;20100;-72
2021/09/11 02:05:16;;;;;;;20.85;14.20;;;20.00;99.90;;;20.38;81.32;101345.47;5113937;28;20126;-72
2021/09/11 02:07:44;;;;;;;22.98;13.93;;;20.00;99.90;;;20.30;81.57;101334.16;5115084;28;20067;-72
2021/09/11 02:10:15;;;;;;;23.88;14.07;;;19.90;99.90;;;20.37;81.85;101329.41;5114990;28;20551;-72
2021/09/11 02:12:46;;;;;;;20.60;14.18;;;19.90;99.90;;;20.41;81.67;101329.25;5114688;28;20493;-72
2021/09/11 02:15:15;;;;;;;25.95;14.55;;;20.00;99.90;;;20.37;81.63;101330.28;5114661;28;20044;-72
2021/09/11 02:17:45;;;;;;;22.33;14.07;;;20.00;99.90;;;20.43;81.55;101329.19;5114617;28;20074;-72
2021/09/11 02:20:14;;;;;;;21.42;13.35;;;20.00;99.90;;;20.47;81.40;101334.41;5114606;28;20051;-72
2021/09/11 02:22:42;;;;;;;24.65;14.32;;;20.00;99.90;;;20.38;81.51;101315.06;5115079;28;20506;-72
2021/09/11 02:25:11;;;;;;;25.38;13.43;;;20.00;99.90;;;20.46;81.55;101338.00;5115222;28;20093;-71
2021/09/11 02:27:41;;;;;;;23.35;13.23;;;20.00;99.90;;;20.39;81.58;101341.88;5114970;28;20043;-72
2021/09/11 02:30:12;;;;;;;22.25;13.20;;;20.00;99.90;;;20.46;81.57;101329.09;5114453;28;20051;-72
2021/09/11 02:32:41;;;;;;;27.33;12.95;;;20.00;99.90;;;20.46;81.53;101329.94;5114492;28;20054;-71
2021/09/11 02:35:10;;;;;;;23.63;13.05;;;20.00;99.90;;;20.33;81.43;101323.28;5114859;28;20461;-72
2021/09/11 02:37:38;;;;;;;24.13;13.40;;;20.10;99.90;;;20.46;81.63;101329.94;5114868;28;20079;-72
2021/09/11 02:40:08;;;;;;;23.30;12.88;;;20.00;99.90;;;20.44;81.63;101329.13;5114090;28;20135;-72
2021/09/11 02:42:37;;;;;;;18.05;12.20;;;20.10;99.90;;;20.50;81.53;101336.06;5114736;28;20112;-72
2021/09/11 02:45:07;;;;;;;21.17;12.73;;;20.00;99.90;;;20.52;81.38;101328.81;5113861;28;20063;-72
2021/09/11 02:47:37;;;;;;;22.38;13.70;;;20.10;99.90;;;20.51;81.44;101338.72;5114107;28;20055;-72
2021/09/11 02:50:07;;;;;;;24.60;12.87;;;20.10;99.90;;;20.53;81.37;101326.09;5114603;28;20131;-72
2021/09/11 02:52:36;;;;;;;26.38;13.00;;;20.10;99.90;;;20.36;81.67;101317.78;5113989;28;20043;-72
2021/09/11 02:55:05;;;;;;;23.23;12.82;;;20.00;99.90;;;20.39;81.76;101320.38;5113945;28;20572;-72
2021/09/11 02:57:34;;;;;;;24.67;12.75;;;20.00;99.90;;;20.49;81.87;101328.97;5114177;28;20551;-72
2021/09/11 03:00:02;;;;;;;22.20;13.32;;;20.10;99.90;;;20.47;81.75;101315.59;5114121;28;20465;-72
2021/09/11 03:02:30;;;;;;;23.98;13.43;;;20.10;99.90;;;20.53;81.70;101326.09;5114409;28;20122;-72
2021/09/11 03:05:01;;;;;;;26.10;12.02;;;20.10;99.90;;;20.45;82.01;101321.94;5114408;28;20122;-72
2021/09/11 03:07:29;;;;;;;23.60;11.93;;;20.10;99.90;;;20.44;82.32;101322.88;5113762;28;20084;-72
2021/09/11 03:09:57;;;;;;;20.38;12.18;;;20.00;99.90;;;20.48;82.26;101332.56;5095702;28;20078;-72
2021/09/11 03:12:26;;;;;;;22.00;12.65;;;20.10;99.90;;;20.46;82.23;101329.09;5114127;28;20085;-72
2021/09/11 03:14:54;;;;;;;19.00;12.25;;;20.00;99.90;;;20.38;82.47;101315.91;5113675;28;20118;-72
2021/09/11 03:17:22;;;;;;;19.05;12.13;;;20.00;99.90;;;20.50;82.43;101336.06;5113592;28;20067;-72
2021/09/11 03:19:51;;;;;;;20.70;12.90;;;20.00;99.90;;;20.55;82.23;101326.03;5113866;28;20047;-72
2021/09/11 03:22:20;;;;;;;21.83;11.80;;;20.10;99.90;;;20.53;82.23;101330.59;5113551;28;20039;-72
2021/09/11 03:24:49;;;;;;;28.15;13.20;;;20.10;99.90;;;20.37;82.50;101341.03;5113633;28;20220;-72
2021/09/11 03:27:17;;;;;;;22.80;13.38;;;20.00;99.90;;;20.35;82.75;101337.53;5113504;28;20043;-72
2021/09/11 03:29:45;;;;;;;19.25;12.52;;;19.90;99.90;;;20.32;83.09;101326.03;5113703;28;20065;-72
2021/09/11 03:32:14;;;;;;;20.10;13.13;;;19.90;99.90;;;20.25;83.51;101328.06;5113663;28;20412;-72
2021/09/11 03:34:42;;;;;;;20.48;13.73;;;19.80;99.90;;;20.17;83.89;101338.16;5113375;28;20039;-72
2021/09/11 03:37:11;;;;;;;21.27;13.85;;;19.70;99.90;;;20.11;84.08;101342.91;5095454;28;20142;-72
2021/09/11 03:39:40;;;;;;;25.02;14.05;;;19.70;99.90;;;20.08;84.39;101343.00;5113651;28;20434;-72
2021/09/11 03:42:09;;;;;;;23.02;14.38;;;19.70;99.90;;;20.15;84.37;101340.03;5113709;28;20047;-72
2021/09/11 03:44:37;;;;;;;21.63;14.52;;;19.70;99.90;;;20.25;84.12;101332.53;5113419;28;20061;-72
2021/09/11 03:47:05;;;;;;;21.17;14.45;;;19.80;99.90;;;20.21;84.18;101326.41;5113322;28;20104;-72
2021/09/11 03:49:34;;;;;;;22.10;14.23;;;19.80;99.90;;;20.19;84.15;101339.03;5113573;28;20404;-72
2021/09/11 03:52:06;;;;;;;27.90;16.15;;;19.80;99.90;;;20.16;84.23;101346.28;5113555;28;20051;-72
2021/09/11 03:54:34;;;;;;;25.75;14.73;;;19.70;99.90;;;20.16;84.34;101343.59;5113571;28;20104;-72
2021/09/11 03:57:05;;;;;;;26.50;16.55;;;19.80;99.90;;;20.22;84.24;101335.34;5113442;28;20412;-72
2021/09/11 03:59:33;;;;;;;23.63;14.23;;;19.80;99.90;;;20.10;84.28;101347.38;5113286;28;20039;-72
2021/09/11 04:02:02;;;;;;;22.00;13.95;;;19.80;99.90;;;20.01;84.62;101342.34;5113184;28;20032;-72
2021/09/11 04:04:30;;;;;;;23.05;14.25;;;19.70;99.90;;;20.08;84.65;101343.00;5113174;28;20051;-72
2021/09/11 04:06:59;;;;;;;22.02;14.48;;;19.60;99.90;;;19.97;84.73;101321.91;5113365;28;20412;-72
2021/09/11 04:09:27;;;;;;;19.90;14.48;;;19.70;99.90;;;20.08;84.61;101334.94;5113409;28;20050;-72
2021/09/11 04:11:56;;;;;;;23.45;13.73;;;19.70;99.90;;;20.07;84.88;101350.19;5113159;28;20043;-72
2021/09/11 04:14:25;;;;;;;20.67;13.98;;;19.60;99.90;;;20.04;85.05;101346.72;5113007;28;20040;-72
2021/09/11 04:16:54;;;;;;;24.90;16.00;;;19.60;99.90;;;20.08;84.96;101337.63;5113079;28;20035;-72
2021/09/11 04:19:22;;;;;;;22.40;15.45;;;19.70;99.90;;;20.05;84.92;101349.38;5113621;28;20451;-72
2021/09/11 04:21:50;;;;;;;27.85;15.48;;;19.60;99.90;;;19.98;85.47;101342.44;5112991;28;20047;-72
2021/09/11 04:24:19;;;;;;;26.05;14.13;;;19.60;99.90;;;20.02;85.18;101343.22;5113241;28;20048;-72
2021/09/11 04:26:47;;;;;;;21.55;14.90;;;19.60;99.90;;;20.09;85.19;101340.25;5113252;28;20070;-72
2021/09/11 04:29:15;;;;;;;20.52;14.40;;;19.60;99.90;;;20.02;85.24;101333.34;5116392;28;20400;-72
2021/09/11 04:31:45;;;;;;;24.90;14.65;;;19.60;99.90;;;20.02;85.32;101348.56;5116664;28;20485;-72
2021/09/11 04:34:13;;;;;;;23.80;15.03;;;19.60;99.90;;;19.97;85.38;101343.41;5116606;28;20442;-72
2021/09/11 04:36:42;;;;;;;27.25;15.10;;;19.50;99.90;;;20.04;85.39;101341.34;5116824;28;20085;-72
2021/09/11 04:39:10;;;;;;;23.27;14.90;;;19.60;99.90;;;18.58;85.35;101109.44;5116760;28;20059;-72
2021/09/11 04:41:38;;;;;;;26.50;15.40;;;19.60;99.90;;;20.00;85.63;101334.31;5116910;28;20074;-72
2021/09/11 04:44:07;;;;;;;23.63;15.05;;;19.60;99.90;;;19.98;85.81;101350.50;5116593;28;20484;-72
2021/09/11 04:46:35;;;;;;;23.35;15.70;;;19.60;99.90;;;19.09;85.85;101181.84;5116496;28;20075;-72
2021/09/11 04:49:05;;;;;;;24.63;16.42;;;19.50;99.90;;;20.09;85.74;101339.41;5116355;28;20046;-72
2021/09/11 04:51:34;;;;;;;28.55;15.98;;;19.70;99.90;;;20.12;85.68;101340.16;5116316;28;20048;-72
2021/09/11 04:54:02;;;;;;;24.83;15.60;;;19.70;99.90;;;20.05;85.73;101327.88;5116307;28;20564;-72
2021/09/11 04:56:30;;;;;;;20.98;14.82;;;19.70;99.90;;;20.11;85.76;101340.22;5116453;28;20078;-72
2021/09/11 04:58:58;;;;;;;24.35;15.70;;;19.70;99.90;;;20.17;85.76;101346.22;5116416;28;20123;-72
2021/09/11 05:01:30;;;;;;;22.73;16.77;;;19.70;99.90;;;20.12;85.76;101348.22;5116657;28;20091;-72
2021/09/11 05:03:59;;;;;;;32.28;17.92;;;19.70;99.90;;;20.15;86.04;101347.22;5116236;28;20485;-72
2021/09/11 05:06:28;;;;;;;28.67;17.52;;;19.70;99.90;;;20.16;86.00;101349.84;5116290;28;20054;-72
2021/09/11 05:08:57;;;;;;;31.43;18.07;;;19.70;99.90;;;20.00;86.08;101337.91;5116307;28;20043;-73
2021/09/11 05:11:25;;;;;;;25.75;17.38;;;19.80;99.90;;;20.04;86.17;101331.50;5115873;28;20368;-72
2021/09/11 05:13:55;;;;;;;27.08;18.25;;;19.70;99.90;;;20.13;86.21;101354.47;5116153;28;20048;-72
2021/09/11 05:16:24;;;;;;;24.13;17.20;;;19.70;99.90;;;20.16;86.30;101354.34;5115911;28;20077;-72
2021/09/11 05:18:52;;;;;;;29.05;17.70;;;19.70;99.90;;;20.17;86.41;101362.34;5115751;28;20500;-72
2021/09/11 05:21:21;;;;;;;30.75;18.35;;;19.70;99.90;;;19.93;86.31;101322.94;5116252;28;20043;-72
2021/09/11 05:23:50;;;;;;;27.45;16.50;;;19.80;99.90;;;20.08;86.54;101361.78;5115643;28;20122;-72
2021/09/11 05:26:19;;;;;;;31.17;18.63;;;19.70;99.90;;;19.91;86.58;101330.19;5115694;28;20105;-72
2021/09/11 05:28:47;;;;;;;28.30;18.50;;;19.60;99.90;;;20.11;86.60;101359.88;5115906;28;20067;-72
2021/09/11 05:31:16;;;;;;;26.77;18.10;;;19.70;99.90;;;20.12;86.37;101356.28;5097179;28;20051;-72
2021/09/11 05:33:44;;;;;;;30.83;18.42;;;19.70;99.90;;;20.17;86.27;101350.75;5115723;28;20032;-72
2021/09/11 05:36:13;;;;;;;28.77;18.20;;;19.70;99.90;;;20.16;86.16;101363.28;5115702;28;20101;-72
2021/09/11 05:38:41;;;;;;;30.95;19.05;;;19.80;99.90;;;20.13;86.08;101360.69;5114938;28;20043;-72
2021/09/11 05:41:11;;;;;;;33.60;18.15;;;19.80;99.90;;;20.05;86.07;101349.38;5115453;28;20035;-72
2021/09/11 05:43:39;;;;;;;28.42;19.05;;;19.80;99.90;;;20.13;86.32;101373.28;5115414;28;20412;-73
2021/09/11 05:46:07;;;;;;;30.67;18.85;;;19.70;99.90;;;20.10;86.39;101381.44;5097159;28;20134;-72
2021/09/11 05:48:36;;;;;;;32.13;18.65;;;19.70;99.90;;;20.01;86.59;101379.97;5115206;28;20071;-72
2021/09/11 05:51:04;;;;;;;31.25;20.55;;;19.70;99.90;;;19.92;86.63;101347.19;5115130;28;20043;-72
2021/09/11 05:53:36;;;;;;;38.92;20.33;;;19.70;99.90;;;20.06;86.54;101377.97;5115167;28;20488;-72
2021/09/11 05:56:05;;;;;;;34.42;19.42;;;19.60;99.90;;;19.88;86.67;101365.19;5114911;28;20100;-72
2021/09/11 05:58:34;;;;;;;33.13;18.90;;;19.70;99.90;;;20.05;86.66;101392.34;5115179;28;20127;-72
2021/09/11 06:01:03;;;;;;;29.63;18.60;;;19.60;99.90;;;19.98;86.71;101393.47;5114889;28;20089;-72
2021/09/11 06:03:34;;;;;;;31.30;19.35;;;19.60;99.90;;;20.04;86.79;101381.63;5114864;28;20044;-72
2021/09/11 06:06:02;;;;;;;32.42;18.45;;;19.60;99.90;;;20.05;86.68;101394.16;5114572;28;20062;-72
2021/09/11 06:08:31;;;;;;;25.70;17.83;;;19.60;99.90;;;20.06;86.51;101401.25;5115402;28;20043;-72
2021/09/11 06:11:00;;;;;;;30.88;17.95;;;19.60;99.90;;;19.98;86.71;101389.91;5114698;28;20055;-72
2021/09/11 06:13:28;;;;;;;28.20;16.90;;;19.60;99.90;;;19.90;86.60;101374.06;5114697;28;20039;-72
2021/09/11 06:15:58;;;;;;;26.17;17.30;;;19.60;99.90;;;20.05;86.45;101396.84;5114925;28;20051;-72
2021/09/11 06:18:26;;;;;;;26.88;17.20;;;19.60;99.90;;;20.08;86.40;101412.84;5114680;28;20396;-72
2021/09/11 06:20:55;;;;;;;24.88;16.27;;;19.70;99.90;;;19.97;86.50;101405.16;5114587;28;20552;-72
2021/09/11 06:23:23;;;;;;;28.65;16.73;;;19.70;99.90;;;19.88;86.38;101389.34;5114533;28;20120;-72
2021/09/11 06:25:51;;;;;;;30.73;18.52;;;19.60;99.90;;;20.00;86.53;101414.91;5114739;28;20043;-72
2021/09/11 06:28:21;;;;;;;30.63;16.52;;;19.60;99.90;;;19.95;86.56;101419.56;5114444;28;20047;-72
2021/09/11 06:30:49;;;;;;;28.00;17.27;;;19.60;99.90;;;19.95;86.67;101417.78;5114748;28;20075;-72
2021/09/11 06:33:19;;;;;;;28.13;16.83;;;19.60;99.90;;;19.98;86.71;101414.06;5114610;28;20705;-72
2021/09/11 06:35:48;;;;;;;29.75;18.30;;;19.60;99.90;;;20.07;86.58;101413.78;5114479;28;20051;-72
2021/09/11 06:38:17;;;;;;;31.23;18.60;;;19.70;99.90;;;20.06;86.55;101404.84;5114537;28;20550;-72
2021/09/11 06:40:46;;;;;;;26.65;17.80;;;19.70;99.90;;;19.97;86.60;101415.91;5114560;28;20060;-72
2021/09/11 06:43:14;;;;;;;29.58;18.95;;;19.60;99.90;;;20.01;86.79;101406.81;5114208;28;20052;-72
2021/09/11 06:45:42;;;;;;;30.77;17.52;;;19.60;99.90;;;20.07;86.55;101421.84;5114556;28;20055;-72
2021/09/11 06:48:11;;;;;;;30.83;17.55;;;19.70;99.90;;;20.07;86.65;101430.78;5114054;28;20446;-72
2021/09/11 06:50:41;;;;;;;30.10;17.70;;;19.70;99.90;;;20.12;86.66;101428.81;5113548;28;20051;-72
2021/09/11 06:53:09;;;;;;;27.23;17.53;;;19.70;99.90;;;20.13;86.61;101429.69;5114041;28;20420;-72
2021/09/11 06:55:37;;;;;;;34.45;18.42;;;19.70;99.90;;;20.21;86.30;101423.13;5113923;28;20302;-73
2021/09/11 06:58:05;;;;;;;28.48;17.83;;;19.80;99.90;;;20.16;86.30;101429.56;5113826;28;20427;-72
2021/09/11 07:00:34;;;;;;;26.80;18.80;;;19.70;99.90;;;20.10;86.59;101435.16;5113824;28;20096;-72
2021/09/11 07:03:02;;;;;;;29.98;19.02;;;19.70;99.90;;;20.17;86.86;101440.25;5113895;28;20088;-74
2021/09/11 07:05:34;;;;;;;33.25;18.90;;;19.80;99.90;;;19.98;86.69;101400.66;5113594;28;20462;-73
2021/09/11 07:08:04;;;;;;;27.30;17.85;;;19.70;99.90;;;20.19;86.79;101435.75;5113487;28;20097;-73
2021/09/11 07:10:32;;;;;;;30.60;18.63;;;19.70;99.90;;;20.24;86.81;101436.47;5113668;28;20071;-74
2021/09/11 07:13:01;;;;;;;30.25;18.92;;;19.80;99.90;;;19.95;86.64;101395.41;5113835;28;20040;-65
2021/09/11 07:15:29;;;;;;;28.67;18.52;;;19.80;99.90;;;20.23;86.35;101440.06;5113437;28;20090;-65
2021/09/11 07:17:58;;;;;;;32.78;19.58;;;19.80;99.90;;;20.30;86.50;101447.00;5113447;28;20047;-65
2021/09/11 07:20:26;;;;;;;31.75;20.48;;;19.90;99.90;;;20.26;86.26;101440.00;5113742;28;20043;-65
2021/09/11 07:22:55;;;;;;;35.40;20.08;;;19.90;99.90;;;20.28;86.37;101448.88;5113515;28;20118;-66
2021/09/11 07:25:24;;;;;;;34.50;19.80;;;19.90;99.90;;;20.28;86.36;101453.38;5113836;28;20462;-66
2021/09/11 07:27:53;;;;;;;32.43;19.30;;;19.90;99.90;;;19.85;86.31;101367.09;5113950;28;20130;-66
2021/09/11 07:30:23;;;;;;;36.10;19.83;;;19.90;99.90;;;20.35;86.28;101446.84;5095431;28;20047;-66
2021/09/11 07:32:51;;;;;;;37.83;20.95;;;19.90;99.90;;;20.38;86.42;101454.81;5113736;28;20075;-66
2021/09/11 07:35:20;;;;;;;32.40;20.70;;;19.90;99.90;;;20.31;86.61;101458.63;5113947;28;20039;-66
2021/09/11 07:37:48;;;;;;;34.30;21.40;;;19.90;99.90;;;20.35;86.58;101457.59;5112966;28;20408;-64
2021/09/11 07:40:17;;;;;;;36.75;22.33;;;19.90;99.90;;;20.38;86.72;101466.41;5113120;28;20063;-67
2021/09/11 07:42:46;;;;;;;35.80;20.98;;;20.00;99.90;;;20.42;86.64;101472.59;5113520;28;20097;-66
2021/09/11 07:45:15;;;;;;;33.17;22.63;;;20.00;99.90;;;20.40;86.53;101459.16;5113420;28;20135;-66
2021/09/11 07:47:44;;;;;;;44.22;23.65;;;20.00;99.90;;;20.50;86.13;101465.09;5113279;28;20123;-68
2021/09/11 07:50:13;;;;;;;37.50;23.60;;;20.10;99.90;;;20.55;86.24;101476.59;5113551;28;20096;-68
2021/09/11 07:52:41;;;;;;;43.20;23.63;;;20.20;99.90;;;20.52;86.32;101468.59;5113806;28;20048;-67
2021/09/11 07:55:10;;;;;;;35.72;22.30;;;20.20;99.90;;;20.53;86.33;101473.97;5113405;28;20040;-67
2021/09/11 07:57:38;;;;;;;40.88;23.80;;;20.20;99.90;;;20.53;86.40;101473.97;5113149;28;20090;-67
2021/09/11 08:00:10;;;;;;;35.20;22.67;;;20.20;99.90;;;20.63;86.35;101478.03;5113181;28;20067;-67
2021/09/11 08:02:38;;;;;;;33.58;21.77;;;20.20;99.90;;;20.70;86.27;101484.09;5114190;28;20048;-66
2021/09/11 08:05:08;;;;;;;32.88;23.58;;;20.30;99.90;;;20.70;86.14;101481.41;5117162;28;20046;-67
2021/09/11 08:07:36;;;;;;;38.88;22.50;;;20.30;99.90;;;20.73;86.13;101486.66;5117152;28;20039;-69
2021/09/11 08:10:06;;;;;;;34.20;23.33;;;20.40;99.90;;;20.71;86.01;101483.19;5099213;28;20480;-69
2021/09/11 08:12:35;;;;;;;37.28;22.45;;;20.30;99.90;;;20.71;85.99;101484.97;5117270;28;20044;-79
2021/09/11 08:15:04;;;;;;;39.20;23.15;;;20.30;99.90;;;20.75;85.98;101486.63;5117213;28;20467;-66
2021/09/11 08:17:34;;;;;;;34.63;22.85;;;20.40;99.90;;;20.75;86.11;101482.09;5117279;28;20284;-67
2021/09/11 08:20:02;;;;;;;33.37;21.83;;;20.40;99.90;;;20.64;85.90;101466.38;5116894;28;20443;-67
2021/09/11 08:22:30;;;;;;;34.58;21.65;;;20.40;99.90;;;20.78;85.71;101497.25;5117154;28;20081;-68
2021/09/11 08:24:59;;;;;;;34.58;21.75;;;20.40;99.90;;;20.71;86.01;101496.63;5117142;28;20504;-67
2021/09/11 08:27:29;;;;;;;32.28;22.40;;;20.30;99.90;;;20.76;86.17;101493.75;5116782;28;20081;-67
2021/09/11 08:29:57;;;;;;;33.97;22.85;;;20.40;99.90;;;20.72;86.10;101502.84;5117246;28;20047;-66
2021/09/11 08:32:25;;;;;;;37.55;22.23;;;20.30;99.90;;;20.75;86.53;101505.44;5116662;28;20174;-65
2021/09/11 08:34:55;;;;;;;36.22;21.80;;;20.40;99.90;;;20.75;86.57;101509.00;5116497;28;20075;-64
2021/09/11 08:37:23;;;;;;;30.07;20.97;;;20.30;99.90;;;20.76;86.49;101500.00;5116501;28;20497;-66
2021/09/11 08:39:51;;;;;;;28.20;20.63;;;20.40;99.90;;;20.93;86.59;101516.41;5116514;28;20461;-65
2021/09/11 08:42:20;;;;;;;29.52;20.70;;;20.50;99.90;;;20.89;86.07;101521.94;5116766;28;20086;-66
2021/09/11 08:44:49;;;;;;;29.73;20.67;;;20.50;99.90;;;20.92;86.26;101516.47;5116172;28;20505;-69
2021/09/11 08:47:17;;;;;;;25.38;19.63;;;20.50;99.90;;;20.91;86.31;101518.28;5116411;28;20051;-67
2021/09/11 08:49:45;;;;;;;32.53;20.55;;;20.50;99.90;;;20.93;86.55;101523.59;5116321;28;20071;-66
2021/09/11 08:52:15;;;;;;;25.85;19.83;;;20.50;99.90;;;21.00;86.67;101522.44;5116207;28;20040;-67
2021/09/11 08:54:44;;;;;;;26.87;20.17;;;20.50;99.90;;;21.05;87.06;101524.06;5116233;28;20092;-67
2021/09/11 08:57:23;;;;;;;24.25;19.77;;;20.60;99.90;;;21.03;87.29;101525.03;5116392;28;20301;-67
2021/09/11 08:59:54;;;;;;;30.38;21.15;;;20.60;99.90;;;20.96;87.66;101523.50;5116331;28;20047;-66
2021/09/11 09:02:25;;;;;;;31.98;23.10;;;20.50;99.90;;;21.02;87.73;101540.31;5116503;28;20404;-67
2021/09/11 09:04:57;;;;;;;28.25;21.48;;;20.60;99.90;;;20.94;87.91;101526.25;5116048;28;20046;-66
2021/09/11 09:07:33;;;;;;;33.72;23.05;;;20.60;99.90;;;21.02;87.86;101540.31;5116391;28;20047;-65
2021/09/11 09:10:05;;;;;;;31.58;21.70;;;20.60;99.90;;;21.09;88.07;101535.59;5116334;28;20126;-66
2021/09/11 09:12:39;;;;;;;30.08;21.60;;;20.70;99.90;;;21.11;88.16;101545.38;5097973;28;20092;-65
2021/09/11 09:15:10;;;;;;;34.65;23.17;;;20.70;99.90;;;21.08;88.49;101533.84;5115582;28;20390;-67
2021/09/11 09:17:50;;;;;;;28.85;22.38;;;20.70;99.90;;;21.01;88.41;101526.91;5116095;28;20040;-66
2021/09/11 09:20:22;;;;;;;28.35;21.75;;;20.70;99.90;;;21.18;88.01;101546.88;5115916;28;20040;-65
2021/09/11 09:23:16;;;;;;;33.33;22.15;;;20.70;99.90;;;21.19;87.76;101543.28;5116040;28;20047;-65
2021/09/11 09:25:46;;;;;;;32.67;23.00;;;20.80;99.90;;;21.23;87.84;101519.81;5115783;28;20043;-64
2021/09/11 09:28:16;;;;;;;30.17;22.27;;;20.90;99.90;;;21.41;87.18;101536.13;5115701;28;20110;-66
2021/09/11 09:30:47;;;;;;;28.83;20.02;;;21.00;99.90;;;21.51;86.55;101544.72;5115874;28;20035;-65
2021/09/11 09:33:19;;;;;;;;;;;21.10;99.90;;;21.55;85.71;101543.66;5115575;28;20036;-65
2021/09/11 09:35:48;;;;;;;32.05;20.27;;;21.20;99.90;;;21.38;85.69;101500.38;5116216;28;19919;-64
2021/09/11 09:38:18;;;;;;;29.55;21.25;;;21.20;99.90;;;21.67;85.33;101551.28;5115547;28;20401;-64
2021/09/11 09:40:50;;;;;;;27.90;20.67;;;21.30;99.90;;;21.76;85.09;101548.22;5115750;28;20044;-64
2021/09/11 09:43:32;;;;;;;26.63;20.60;;;21.30;99.90;;;21.77;84.93;101546.41;5115983;28;20035;-64
2021/09/11 09:46:07;;;;;;;24.45;18.58;;;21.40;99.90;;;21.78;84.56;101546.34;5115290;28;20486;-64
2021/09/11 09:48:36;;;;;;;24.63;18.50;;;21.40;99.90;;;21.70;84.36;101539.53;5115425;28;20093;-66
2021/09/11 09:51:07;;;;;;;23.40;17.55;;;21.40;99.90;;;21.80;84.06;101538.19;5097091;28;20097;-66
2021/09/11 09:53:40;;;;;;;21.38;18.00;;;21.40;99.90;;;21.93;83.73;101545.75;5115058;28;20139;-64
2021/09/11 09:56:09;;;;;;;23.85;19.17;;;21.40;99.90;;;22.08;83.41;101549.66;5114999;28;20046;-63
2021/09/11 09:58:38;;;;;;;19.42;16.58;;;21.60;99.90;;;22.00;83.46;101544.59;5114867;28;20042;-67
2021/09/11 10:01:07;;;;;;;23.73;18.00;;;21.60;99.90;;;22.01;83.48;101546.31;5114949;28;20046;-68
2021/09/11 10:03:36;;;;;;;21.00;17.33;;;21.60;99.90;;;22.10;83.64;101547.78;5096618;28;20457;-67
2021/09/11 10:06:12;;;;;;;20.88;15.68;;;21.70;99.90;;;22.06;83.50;101538.94;5114773;28;20520;-68
2021/09/11 10:08:48;;;;;;;20.38;15.45;;;21.70;99.90;;;22.00;83.03;101538.31;5115122;28;20048;-65